Emneth, United Kingdom
Current Conditions -  °F | °C
As of 5:50 AM on Wednesday 28 Jan 2015 (Local Time) from EGYM Reporting Station
Broken Clouds Broken Clouds  
Wind Chill: 34°   Ceiling: 800
Heat Index: 43°   Visibility: 6mi
Dew Point: 41°   Wind: 21mph
Humidity: 93%   Direction: 210°SSW
Pressure: 29.68"   Gusts: NA
Location:  52.64°N, 0.21°E
Report Text: EGYM 280550Z 21018KT 9999 BKN008 06/05 Q1005 GRN
Loading
Personal Weather Stations






























Interactive Weather Map New forecast layout! Learn more

10-Day Weather Forecast

Advertisements
Track Severe Weather on mobile